Boeing 737-86J from Air Berlin at Dusseldorf.
 Regi:D-ABAP  LARGER
 MSN Year:28070 1998
 Date of picture:2006-08-17 11:44
 Discription:Withdrawn from use 2012-05-02
 Position:M to 23L
 Flight: DEP HRG AB8218 Hurgadah Airport Egypt
 Logs: D-ABAP (B738 AB) 1158 20060817 AB8218 () [somewhere]
HRG Hurghada AB 8218 Air Berlin 10:55 AM Unknown
 Metar 17/08/2006 11:20 METAR EDDL 171120Z 15008KT 9999 FEW019 SCT050 BKN070 20/16 Q1005 NOSIG=
 Hits: 255 ID: 412

Debriefing: Photographed movements of Airports in NW-Europe.
The images of our site attendant is in authorisation from Queen of Sky.
Copying of images of this site have been prohibited in which manner without the authorisation of the photographer.
In behalf of the crew :"Thank you visiting us" - Contact
Factsheets Boeing, 737-86J, Air Berlin, made by De Plane! © 2006 - 2022 All rights reserved


.